West Irvine, Kentucky
Current Conditions -  °F | °C
As of 1:15 PM on Thursday 23 Oct 2014 (Local Time) from KI39 Reporting Station
Clear Clear  
Wind Chill: 55°   Ceiling: Unl
Heat Index: 55°   Visibility: 10mi
Dew Point: 39°   Wind: 6mph
Humidity: 54%   Direction: 70°ENE
Pressure: 30.2"   Gusts: NA
Location:  37.6427°N, 83.9998°W
Report Text: KI39 231715Z AUTO 07005KT 10SM CLR 13/04 A3020 RMK AO2
Loading
Personal Weather Stations






























Interactive Weather Map
Tropical Storm Tracking
New forecast layout! Learn more

10-Day Weather Forecast

Advertisements
Track Severe Weather on mobile